createdAt,value
2023-03-13T00:00:17.901Z,9.74
2023-03-13T00:01:07.909Z,9.78
2023-03-13T00:01:57.894Z,9.81
2023-03-13T00:02:47.849Z,9.88
2023-03-13T00:03:37.845Z,9.91
2023-03-13T00:04:27.834Z,9.96
2023-03-13T00:05:18.082Z,10.01
2023-03-13T00:06:07.816Z,10.02
2023-03-13T00:06:57.806Z,9.98
2023-03-13T00:07:47.806Z,9.95
2023-03-13T00:08:37.866Z,9.89
2023-03-13T00:09:27.766Z,9.85
2023-03-13T00:10:17.806Z,9.75
2023-03-13T00:11:07.766Z,9.73
2023-03-13T00:11:57.927Z,9.68
2023-03-13T00:12:47.764Z,9.62
2023-03-13T00:13:37.727Z,9.62
2023-03-13T00:14:27.794Z,9.62
2023-03-13T00:15:17.721Z,9.59
2023-03-13T00:16:07.739Z,9.58
2023-03-13T00:16:57.728Z,9.56
2023-03-13T00:17:47.734Z,9.53
2023-03-13T00:18:37.809Z,9.55
2023-03-13T00:19:27.783Z,9.59
2023-03-13T00:20:17.674Z,9.68
2023-03-13T00:21:07.645Z,9.73
2023-03-13T00:21:57.623Z,9.71
2023-03-13T00:22:47.623Z,9.75
2023-03-13T00:23:37.887Z,9.75
2023-03-13T00:24:27.616Z,9.85
2023-03-13T00:25:17.616Z,9.89
2023-03-13T00:26:07.621Z,9.95
2023-03-13T00:26:57.581Z,9.99
2023-03-13T00:27:47.584Z,10.10
2023-03-13T00:28:37.558Z,10.11
2023-03-13T00:29:27.553Z,10.14
2023-03-13T00:30:17.555Z,10.09
2023-03-13T00:31:07.626Z,9.96
2023-03-13T00:31:57.663Z,9.88
2023-03-13T00:32:47.720Z,9.83
2023-03-13T00:33:37.521Z,9.80
2023-03-13T00:34:27.513Z,9.77
2023-03-13T00:35:17.527Z,9.77
2023-03-13T00:36:08.204Z,9.74
2023-03-13T00:36:57.461Z,9.68
2023-03-13T00:37:47.450Z,9.62
2023-03-13T00:38:37.852Z,9.62
2023-03-13T00:39:27.456Z,9.65
2023-03-13T00:40:17.431Z,9.68
2023-03-13T00:41:07.419Z,9.70
2023-03-13T00:41:57.418Z,9.68
2023-03-13T00:42:47.416Z,9.67
2023-03-13T00:43:37.396Z,9.60
2023-03-13T00:44:27.380Z,9.59
2023-03-13T00:45:17.384Z,9.59
2023-03-13T00:46:07.456Z,9.58
2023-03-13T00:46:57.404Z,9.53
2023-03-13T00:47:47.369Z,9.44
2023-03-13T00:48:37.342Z,9.40
2023-03-13T00:49:27.336Z,9.37
2023-03-13T00:50:17.338Z,9.30
2023-03-13T00:51:07.331Z,9.27
2023-03-13T00:51:57.305Z,9.26
2023-03-13T00:52:47.296Z,9.26
2023-03-13T00:53:37.293Z,9.30
2023-03-13T00:54:27.275Z,9.31
2023-03-13T00:55:17.276Z,9.27
2023-03-13T00:56:07.257Z,9.37
2023-03-13T00:56:57.237Z,9.55
2023-03-13T00:57:47.267Z,9.65
2023-03-13T00:58:37.223Z,9.71
2023-03-13T00:59:27.221Z,9.77
2023-03-13T01:00:17.220Z,9.77
2023-03-13T01:01:07.220Z,9.74
2023-03-13T01:01:57.222Z,9.71
2023-03-13T01:02:47.388Z,9.56
2023-03-13T01:03:37.283Z,9.45
2023-03-13T01:04:27.172Z,9.44
2023-03-13T01:05:17.168Z,9.40
2023-03-13T01:06:07.162Z,9.38
2023-03-13T01:06:57.254Z,9.41
2023-03-13T01:07:47.138Z,9.42
2023-03-13T01:08:37.120Z,9.42
2023-03-13T01:09:27.120Z,9.40
2023-03-13T01:10:17.158Z,9.40
2023-03-13T01:11:07.087Z,9.34
2023-03-13T01:11:57.078Z,9.31
2023-03-13T01:12:47.080Z,9.37
2023-03-13T01:13:37.082Z,9.38
2023-03-13T01:14:27.068Z,9.40
2023-03-13T01:15:17.069Z,9.37
2023-03-13T01:16:07.129Z,9.34
2023-03-13T01:16:57.041Z,9.32
2023-03-13T01:17:47.031Z,9.31
2023-03-13T01:18:37.002Z,9.27
2023-03-13T01:19:27.006Z,9.23
2023-03-13T01:20:17.002Z,9.20
2023-03-13T01:21:06.999Z,9.17
2023-03-13T01:21:56.981Z,9.13
2023-03-13T01:22:46.961Z,9.13
2023-03-13T01:23:36.961Z,9.10
2023-03-13T01:24:26.961Z,9.06
2023-03-13T01:25:16.932Z,9.03
2023-03-13T01:26:06.957Z,8.98
2023-03-13T01:26:56.923Z,8.98
2023-03-13T01:27:46.910Z,9.01
2023-03-13T01:28:36.920Z,9.03
2023-03-13T01:29:26.926Z,9.12
2023-03-13T01:30:16.881Z,9.23
2023-03-13T01:31:06.950Z,9.34
2023-03-13T01:31:56.893Z,9.38
2023-03-13T01:32:46.943Z,9.40
2023-03-13T01:33:36.857Z,9.38
2023-03-13T01:34:26.832Z,9.37
2023-03-13T01:35:16.857Z,9.35
2023-03-13T01:36:06.825Z,9.34
2023-03-13T01:36:56.811Z,9.38
2023-03-13T01:37:46.809Z,9.42
2023-03-13T01:38:36.802Z,9.48
2023-03-13T01:39:26.782Z,9.50
2023-03-13T01:40:16.788Z,9.53
2023-03-13T01:41:06.776Z,9.56
2023-03-13T01:41:56.757Z,9.60
2023-03-13T01:42:46.772Z,9.62
2023-03-13T01:43:36.748Z,9.67
2023-03-13T01:44:26.748Z,9.68
2023-03-13T01:45:16.715Z,9.71
2023-03-13T01:46:06.798Z,9.74
2023-03-13T01:46:56.705Z,9.75
2023-03-13T01:47:48.169Z,9.78
2023-03-13T01:48:36.780Z,9.80
2023-03-13T01:49:26.702Z,9.80
2023-03-13T01:50:16.666Z,9.88
2023-03-13T01:51:06.665Z,9.88
2023-03-13T01:51:56.640Z,9.92
2023-03-13T01:52:46.629Z,9.93
2023-03-13T01:53:36.627Z,10.04
2023-03-13T01:54:26.645Z,10.10
2023-03-13T01:55:16.600Z,10.18
2023-03-13T01:56:06.599Z,10.28
2023-03-13T01:56:56.601Z,10.38
2023-03-13T01:57:46.576Z,10.42
2023-03-13T01:58:36.569Z,10.43
2023-03-13T01:59:26.565Z,10.44
2023-03-13T02:00:16.561Z,10.46
2023-03-13T02:01:06.542Z,10.44
2023-03-13T02:01:56.589Z,10.42
2023-03-13T02:02:46.598Z,10.42
2023-03-13T02:03:36.509Z,10.32
2023-03-13T02:04:26.499Z,10.38
2023-03-13T02:05:16.503Z,10.43
2023-03-13T02:06:06.513Z,10.42
2023-03-13T02:06:56.470Z,10.39
2023-03-13T02:07:46.479Z,10.39
2023-03-13T02:08:36.475Z,10.35
2023-03-13T02:09:26.461Z,10.34
2023-03-13T02:10:16.450Z,10.29
2023-03-13T02:11:06.437Z,10.20
2023-03-13T02:11:56.432Z,10.09
2023-03-13T02:12:46.419Z,10.02
2023-03-13T02:13:36.394Z,9.99
2023-03-13T02:14:26.415Z,9.93
2023-03-13T02:15:16.394Z,9.89
2023-03-13T02:16:06.432Z,9.85
2023-03-13T02:16:56.364Z,9.80
2023-03-13T02:17:46.358Z,9.78
2023-03-13T02:18:36.354Z,9.74
2023-03-13T02:19:26.346Z,9.71
2023-03-13T02:20:16.347Z,9.68
2023-03-13T02:21:06.338Z,9.63
2023-03-13T02:21:56.304Z,9.62
2023-03-13T02:22:46.297Z,9.60
2023-03-13T02:23:36.305Z,9.58
2023-03-13T02:24:26.295Z,9.55
2023-03-13T02:25:16.278Z,9.52
2023-03-13T02:26:06.270Z,9.50
2023-03-13T02:26:56.262Z,9.50
2023-03-13T02:27:46.261Z,9.48
2023-03-13T02:28:36.233Z,9.48
2023-03-13T02:29:26.221Z,9.42
2023-03-13T02:30:16.251Z,9.41
2023-03-13T02:31:06.274Z,9.35
2023-03-13T02:31:56.191Z,9.32
2023-03-13T02:32:46.240Z,9.24
2023-03-13T02:33:36.197Z,9.22
2023-03-13T02:34:26.173Z,9.19
2023-03-13T02:35:16.170Z,9.22
2023-03-13T02:36:06.158Z,9.20
2023-03-13T02:36:56.149Z,9.20
2023-03-13T02:37:46.133Z,9.17
2023-03-13T02:38:36.123Z,9.17
2023-03-13T02:39:26.123Z,9.17
2023-03-13T02:40:16.100Z,9.15
2023-03-13T02:41:06.115Z,9.15
2023-03-13T02:41:56.086Z,9.12
2023-03-13T02:42:46.085Z,9.10
2023-03-13T02:43:36.079Z,9.03
2023-03-13T02:44:26.060Z,9.00
2023-03-13T02:45:16.055Z,8.93
2023-03-13T02:46:06.049Z,8.89
2023-03-13T02:46:56.107Z,8.89
2023-03-13T02:47:46.026Z,8.89
2023-03-13T02:48:36.031Z,8.88
2023-03-13T02:49:26.002Z,8.82
2023-03-13T02:50:15.996Z,8.82
2023-03-13T02:51:06.009Z,8.82
2023-03-13T02:51:55.980Z,8.79
2023-03-13T02:52:45.986Z,8.76
2023-03-13T02:53:35.955Z,8.76
2023-03-13T02:54:25.946Z,8.70
2023-03-13T02:55:15.955Z,8.65
2023-03-13T02:56:05.947Z,8.61
2023-03-13T02:56:55.940Z,8.61
2023-03-13T02:57:45.914Z,8.61
2023-03-13T02:58:44.050Z,8.58
2023-03-13T02:59:26.903Z,8.58
2023-03-13T03:00:15.912Z,8.61
2023-03-13T03:01:05.907Z,8.60
2023-03-13T03:01:55.865Z,8.58
2023-03-13T03:02:45.860Z,8.54
2023-03-13T03:03:35.903Z,8.55
2023-03-13T03:04:25.856Z,8.55
2023-03-13T03:05:15.835Z,8.55
2023-03-13T03:06:05.831Z,8.55
2023-03-13T03:06:55.825Z,8.55
2023-03-13T03:07:45.795Z,8.54
2023-03-13T03:08:35.795Z,8.54
2023-03-13T03:09:25.793Z,8.55
2023-03-13T03:10:15.783Z,8.54
2023-03-13T03:11:05.837Z,8.55
2023-03-13T03:11:55.755Z,8.55
2023-03-13T03:12:45.762Z,8.55
2023-03-13T03:13:35.756Z,8.50
2023-03-13T03:14:25.735Z,8.49
2023-03-13T03:15:15.757Z,8.52
2023-03-13T03:16:05.765Z,8.54
2023-03-13T03:16:55.720Z,8.54
2023-03-13T03:17:45.701Z,8.54
2023-03-13T03:18:35.707Z,8.54
2023-03-13T03:19:25.687Z,8.54
2023-03-13T03:20:15.672Z,8.50
2023-03-13T03:21:05.675Z,8.47
2023-03-13T03:21:55.681Z,8.47
2023-03-13T03:22:45.631Z,8.50
2023-03-13T03:23:35.641Z,8.49
2023-03-13T03:24:25.624Z,8.50
2023-03-13T03:25:15.622Z,8.50
2023-03-13T03:26:05.596Z,8.54
2023-03-13T03:26:55.590Z,8.63
2023-03-13T03:27:45.588Z,8.71
2023-03-13T03:28:35.576Z,8.79
2023-03-13T03:29:25.547Z,8.85
2023-03-13T03:30:15.545Z,8.96
2023-03-13T03:31:05.526Z,9.04
2023-03-13T03:31:55.563Z,9.15
2023-03-13T03:32:45.561Z,9.22
2023-03-13T03:33:35.520Z,9.27
2023-03-13T03:34:25.494Z,9.37
2023-03-13T03:35:15.515Z,9.41
2023-03-13T03:36:05.513Z,9.42
2023-03-13T03:36:55.480Z,9.41
2023-03-13T03:37:45.463Z,9.42
2023-03-13T03:38:35.456Z,9.41
2023-03-13T03:39:25.462Z,9.42
2023-03-13T03:40:15.442Z,9.41
2023-03-13T03:41:05.432Z,9.40
2023-03-13T03:41:55.411Z,9.40
2023-03-13T03:42:45.403Z,9.40
2023-03-13T03:43:35.420Z,9.38
2023-03-13T03:44:25.382Z,9.37
2023-03-13T03:45:15.414Z,9.37
2023-03-13T03:46:05.424Z,9.38
2023-03-13T03:46:55.448Z,9.44
2023-03-13T03:47:45.368Z,9.49
2023-03-13T03:48:35.354Z,9.52
2023-03-13T03:49:25.331Z,9.58
2023-03-13T03:50:15.320Z,9.65
2023-03-13T03:51:05.330Z,9.70
2023-03-13T03:51:55.318Z,9.81
2023-03-13T03:52:45.290Z,9.91
2023-03-13T03:53:35.312Z,9.93
2023-03-13T03:54:25.285Z,9.95
2023-03-13T03:55:15.273Z,10.04
2023-03-13T03:56:05.260Z,10.11
2023-03-13T03:56:55.271Z,10.16
2023-03-13T03:57:45.232Z,10.16
2023-03-13T03:58:35.251Z,10.16
2023-03-13T03:59:25.235Z,10.18
2023-03-13T04:00:15.213Z,10.22
2023-03-13T04:01:05.201Z,10.14
2023-03-13T04:01:55.280Z,10.14
2023-03-13T04:02:45.192Z,10.16
2023-03-13T04:03:35.268Z,10.11
2023-03-13T04:04:25.164Z,10.09
2023-03-13T04:05:15.171Z,10.10
2023-03-13T04:06:05.166Z,10.13
2023-03-13T04:06:55.160Z,10.17
2023-03-13T04:07:45.145Z,10.22
2023-03-13T04:08:35.157Z,10.26
2023-03-13T04:09:25.122Z,10.31
2023-03-13T04:10:15.105Z,10.32
2023-03-13T04:11:05.093Z,10.35
2023-03-13T04:11:55.104Z,10.35
2023-03-13T04:12:45.084Z,10.38
2023-03-13T04:13:35.100Z,10.43
2023-03-13T04:14:25.073Z,10.46
2023-03-13T04:15:15.073Z,10.46
2023-03-13T04:16:05.045Z,10.44
2023-03-13T04:16:55.104Z,10.44
2023-03-13T04:17:45.036Z,10.42
2023-03-13T04:18:35.010Z,10.44
2023-03-13T04:19:25.015Z,10.51
2023-03-13T04:20:14.998Z,10.57
2023-03-13T04:21:04.988Z,10.57
2023-03-13T04:21:55.003Z,10.60
2023-03-13T04:22:44.973Z,10.60
2023-03-13T04:23:34.968Z,10.62
2023-03-13T04:24:24.966Z,10.65
2023-03-13T04:25:14.943Z,10.69
2023-03-13T04:26:04.937Z,10.69
2023-03-13T04:26:54.933Z,10.70
2023-03-13T04:27:44.944Z,10.70
2023-03-13T04:28:34.924Z,10.70
2023-03-13T04:29:24.901Z,10.73
2023-03-13T04:30:17.557Z,10.72
2023-03-13T04:31:04.916Z,10.75
2023-03-13T04:31:54.872Z,10.78
2023-03-13T04:32:44.895Z,10.76
2023-03-13T04:33:34.875Z,10.75
2023-03-13T04:34:24.833Z,10.78
2023-03-13T04:35:14.892Z,10.78
2023-03-13T04:36:04.883Z,10.80
2023-03-13T04:36:54.822Z,10.83
2023-03-13T04:37:44.822Z,10.87
2023-03-13T04:38:34.794Z,10.93
2023-03-13T04:39:24.789Z,10.95
2023-03-13T04:40:14.790Z,10.99
2023-03-13T04:41:04.776Z,10.94
2023-03-13T04:41:54.751Z,10.95
2023-03-13T04:42:44.743Z,10.95
2023-03-13T04:43:34.750Z,10.95
2023-03-13T04:44:24.720Z,11.01
2023-03-13T04:45:14.730Z,10.98
2023-03-13T04:46:04.786Z,11.01
2023-03-13T04:46:54.701Z,11.03
2023-03-13T04:47:44.680Z,11.05
2023-03-13T04:48:34.691Z,11.06
2023-03-13T04:49:24.688Z,11.06
2023-03-13T04:50:14.704Z,11.09
2023-03-13T04:51:04.667Z,11.13
2023-03-13T04:51:54.661Z,11.12
2023-03-13T04:52:44.640Z,11.11
2023-03-13T04:53:34.627Z,11.11
2023-03-13T04:54:24.611Z,11.13
2023-03-13T04:55:14.621Z,11.17
2023-03-13T04:56:04.608Z,11.17
2023-03-13T04:56:54.610Z,11.17
2023-03-13T04:57:44.570Z,11.19
2023-03-13T04:58:34.592Z,11.17
2023-03-13T04:59:24.553Z,11.16
2023-03-13T05:00:14.556Z,11.17
2023-03-13T05:01:04.606Z,11.19
2023-03-13T05:01:54.549Z,11.17
2023-03-13T05:02:44.562Z,11.12
2023-03-13T05:03:34.534Z,11.06
2023-03-13T05:04:24.508Z,11.01
2023-03-13T05:05:14.589Z,10.94
2023-03-13T05:06:04.488Z,10.94
2023-03-13T05:06:54.487Z,10.90
2023-03-13T05:07:44.477Z,10.90
2023-03-13T05:08:34.460Z,10.88
2023-03-13T05:09:24.463Z,10.84
2023-03-13T05:10:14.450Z,10.86
2023-03-13T05:11:04.438Z,10.80
2023-03-13T05:11:55.605Z,10.76
2023-03-13T05:12:44.418Z,10.76
2023-03-13T05:13:34.432Z,10.78
2023-03-13T05:14:24.400Z,10.80
2023-03-13T05:15:14.404Z,10.78
2023-03-13T05:16:04.430Z,10.76
2023-03-13T05:16:54.372Z,10.78
2023-03-13T05:17:44.359Z,10.80
2023-03-13T05:18:34.361Z,10.83
2023-03-13T05:19:24.340Z,10.87
2023-03-13T05:20:14.360Z,10.83
2023-03-13T05:21:04.325Z,10.81
2023-03-13T05:21:54.317Z,10.80
2023-03-13T05:22:44.308Z,10.78
2023-03-13T05:23:34.289Z,10.83
2023-03-13T05:24:24.280Z,10.86
2023-03-13T05:25:14.297Z,10.86
2023-03-13T05:26:04.280Z,10.86
2023-03-13T05:26:54.258Z,10.84
2023-03-13T05:27:44.248Z,10.83
2023-03-13T05:28:34.287Z,10.83
2023-03-13T05:29:24.229Z,10.80
2023-03-13T05:30:14.522Z,10.81
2023-03-13T05:31:04.275Z,10.78
2023-03-13T05:31:54.208Z,10.80
2023-03-13T05:32:44.237Z,10.81
2023-03-13T05:33:34.197Z,10.83
2023-03-13T05:34:24.178Z,10.84
2023-03-13T05:35:14.174Z,10.83
2023-03-13T05:36:04.217Z,10.88
2023-03-13T05:36:54.146Z,10.90
2023-03-13T05:37:44.136Z,10.88
2023-03-13T05:38:34.142Z,10.87
2023-03-13T05:39:24.123Z,10.88
2023-03-13T05:40:14.106Z,10.86
2023-03-13T05:41:04.117Z,10.83
2023-03-13T05:41:54.106Z,10.80
2023-03-13T05:42:44.085Z,10.83
2023-03-13T05:43:34.103Z,10.84
2023-03-13T05:44:24.056Z,10.78
2023-03-13T05:45:14.077Z,10.76
2023-03-13T05:46:04.092Z,10.78
2023-03-13T05:46:54.167Z,10.78
2023-03-13T05:47:44.042Z,10.78
2023-03-13T05:48:34.018Z,10.75
2023-03-13T05:49:24.007Z,10.68
2023-03-13T05:50:14.006Z,10.60
2023-03-13T05:51:04.012Z,10.55
2023-03-13T05:51:53.979Z,10.55
2023-03-13T05:52:43.963Z,10.54
2023-03-13T05:53:33.984Z,10.55
2023-03-13T05:54:23.942Z,10.55
2023-03-13T05:55:13.931Z,10.51
2023-03-13T05:56:03.922Z,10.52
2023-03-13T05:56:53.922Z,10.49
2023-03-13T05:57:43.913Z,10.51
2023-03-13T05:58:33.912Z,10.47
2023-03-13T05:59:23.896Z,10.42
2023-03-13T06:00:13.918Z,10.43
2023-03-13T06:01:03.868Z,10.44
2023-03-13T06:01:53.885Z,10.44
2023-03-13T06:02:43.867Z,10.44
2023-03-13T06:03:33.991Z,10.47
2023-03-13T06:04:23.965Z,10.49
2023-03-13T06:05:13.840Z,10.51
2023-03-13T06:06:03.828Z,10.52
2023-03-13T06:06:53.816Z,10.57
2023-03-13T06:07:43.816Z,10.57
2023-03-13T06:08:33.795Z,10.57
2023-03-13T06:09:23.789Z,10.57
2023-03-13T06:10:13.792Z,10.57
2023-03-13T06:11:03.759Z,10.57
2023-03-13T06:11:53.772Z,10.58
2023-03-13T06:12:43.753Z,10.62
2023-03-13T06:13:33.742Z,10.63
2023-03-13T06:14:23.727Z,10.60
2023-03-13T06:15:13.716Z,10.60
2023-03-13T06:16:03.737Z,10.57
2023-03-13T06:16:53.711Z,10.55
2023-03-13T06:17:43.701Z,10.57
2023-03-13T06:18:33.674Z,10.58
2023-03-13T06:19:23.673Z,10.58
2023-03-13T06:20:13.676Z,10.60
2023-03-13T06:21:03.662Z,10.65
2023-03-13T06:21:53.645Z,10.66
2023-03-13T06:22:43.639Z,10.72
2023-03-13T06:23:33.634Z,10.72
2023-03-13T06:24:23.601Z,10.73
2023-03-13T06:25:13.610Z,10.73
2023-03-13T06:26:03.594Z,10.73
2023-03-13T06:26:53.572Z,10.72
2023-03-13T06:27:43.592Z,10.75
2023-03-13T06:28:33.581Z,10.76
2023-03-13T06:29:23.570Z,10.75
2023-03-13T06:30:13.543Z,10.75
2023-03-13T06:31:03.577Z,10.75
2023-03-13T06:31:53.703Z,10.75
2023-03-13T06:32:43.638Z,10.75
2023-03-13T06:33:33.588Z,10.78
2023-03-13T06:34:23.512Z,10.76
2023-03-13T06:35:13.486Z,10.80
2023-03-13T06:36:03.619Z,10.80
2023-03-13T06:36:53.483Z,10.80
2023-03-13T06:37:43.493Z,10.80
2023-03-13T06:38:33.453Z,10.81
2023-03-13T06:39:23.461Z,10.81
2023-03-13T06:40:13.448Z,10.80
2023-03-13T06:41:03.431Z,10.80
2023-03-13T06:41:53.429Z,10.80
2023-03-13T06:42:43.423Z,10.80
2023-03-13T06:43:33.392Z,10.83
2023-03-13T06:44:23.390Z,10.84
2023-03-13T06:45:13.398Z,10.84
2023-03-13T06:46:03.384Z,10.86
2023-03-13T06:46:53.434Z,10.86
2023-03-13T06:47:43.370Z,10.88
2023-03-13T06:48:33.354Z,10.88
2023-03-13T06:49:23.341Z,10.87
2023-03-13T06:50:13.348Z,10.88
2023-03-13T06:51:03.322Z,10.90
2023-03-13T06:51:53.314Z,10.90
2023-03-13T06:52:44.343Z,10.90
2023-03-13T06:53:33.290Z,10.93
2023-03-13T06:54:23.282Z,10.95
2023-03-13T06:55:13.568Z,10.95
2023-03-13T06:56:03.261Z,10.95
2023-03-13T06:56:53.259Z,11.01
2023-03-13T06:57:43.257Z,11.02
2023-03-13T06:58:33.275Z,11.03
2023-03-13T06:59:23.230Z,11.11
2023-03-13T07:00:13.238Z,11.17
2023-03-13T07:01:03.290Z,11.19
2023-03-13T07:01:53.191Z,11.19
2023-03-13T07:02:43.190Z,11.21
2023-03-13T07:03:33.201Z,11.23
2023-03-13T07:04:23.280Z,11.26
2023-03-13T07:05:13.160Z,11.28
2023-03-13T07:06:03.151Z,11.30
2023-03-13T07:06:53.151Z,11.30
2023-03-13T07:07:43.144Z,11.33
2023-03-13T07:08:33.187Z,11.33
2023-03-13T07:09:23.122Z,11.33
2023-03-13T07:10:13.102Z,11.35
2023-03-13T07:11:03.103Z,11.31
2023-03-13T07:11:53.083Z,11.33
2023-03-13T07:12:43.095Z,11.33
2023-03-13T07:13:33.088Z,11.31
2023-03-13T07:14:23.074Z,11.30
2023-03-13T07:15:13.068Z,11.28
2023-03-13T07:16:03.087Z,11.28
2023-03-13T07:16:53.172Z,11.27
2023-03-13T07:17:43.142Z,11.26
2023-03-13T07:18:33.025Z,11.27
2023-03-13T07:19:23.016Z,11.27
2023-03-13T07:20:13.125Z,11.27
2023-03-13T07:21:03.028Z,11.26
2023-03-13T07:21:52.994Z,11.26
2023-03-13T07:22:42.982Z,11.27
2023-03-13T07:23:32.963Z,11.27
2023-03-13T07:24:23.053Z,11.27
2023-03-13T07:25:12.937Z,11.26
2023-03-13T07:26:02.971Z,11.27
2023-03-13T07:27:04.888Z,11.28
2023-03-13T07:27:43.945Z,11.28
2023-03-13T07:28:34.410Z,11.27
2023-03-13T07:29:22.919Z,11.26
2023-03-13T07:30:12.901Z,11.24
2023-03-13T07:31:02.895Z,11.24
2023-03-13T07:31:52.973Z,11.26
2023-03-13T07:32:42.920Z,11.27
2023-03-13T07:33:32.856Z,11.28
2023-03-13T07:34:22.849Z,11.30
2023-03-13T07:35:12.842Z,11.28
2023-03-13T07:36:02.901Z,11.30
2023-03-13T07:36:52.812Z,11.28
2023-03-13T07:37:42.807Z,11.27
2023-03-13T07:38:32.802Z,11.27
2023-03-13T07:39:22.808Z,11.28
2023-03-13T07:40:12.791Z,11.28
2023-03-13T07:41:02.780Z,11.30
2023-03-13T07:41:52.772Z,11.31
2023-03-13T07:42:42.802Z,11.33
2023-03-13T07:43:32.778Z,11.36
2023-03-13T07:44:22.732Z,11.41
2023-03-13T07:45:13.400Z,11.45
2023-03-13T07:46:02.778Z,11.48
2023-03-13T07:46:52.720Z,11.49
2023-03-13T07:47:42.714Z,11.49
2023-03-13T07:48:32.689Z,11.45
2023-03-13T07:49:22.688Z,11.46
2023-03-13T07:50:12.814Z,11.48
2023-03-13T07:51:02.672Z,11.45
2023-03-13T07:51:52.665Z,11.44
2023-03-13T07:52:42.639Z,11.46
2023-03-13T07:53:32.747Z,11.45
2023-03-13T07:54:22.611Z,11.46
2023-03-13T07:55:12.628Z,11.48
2023-03-13T07:56:02.607Z,11.53
2023-03-13T07:56:52.595Z,11.54
2023-03-13T07:57:42.590Z,11.59
2023-03-13T07:58:32.576Z,11.57
2023-03-13T07:59:22.610Z,11.60
2023-03-13T08:00:12.554Z,11.63
2023-03-13T08:01:02.584Z,11.64
2023-03-13T08:01:52.657Z,11.66
2023-03-13T08:02:42.613Z,11.69
2023-03-13T08:03:32.561Z,11.72
2023-03-13T08:04:22.509Z,11.75
2023-03-13T08:05:12.516Z,11.77
2023-03-13T08:06:02.543Z,11.78
2023-03-13T08:06:52.517Z,11.79
2023-03-13T08:07:42.480Z,11.82
2023-03-13T08:08:32.468Z,11.85
2023-03-13T08:09:22.466Z,11.93
2023-03-13T08:10:12.438Z,11.94
2023-03-13T08:11:02.429Z,11.98
2023-03-13T08:11:52.430Z,12.00
2023-03-13T08:12:42.420Z,12.04
2023-03-13T08:13:32.417Z,12.08
2023-03-13T08:14:22.408Z,12.15
2023-03-13T08:15:12.394Z,12.16
2023-03-13T08:16:02.400Z,12.21
2023-03-13T08:16:52.432Z,12.25
2023-03-13T08:17:42.375Z,12.30
2023-03-13T08:18:32.353Z,12.33
2023-03-13T08:19:22.344Z,12.34
2023-03-13T08:20:12.338Z,12.38
2023-03-13T08:21:02.316Z,12.38
2023-03-13T08:21:52.329Z,12.40
2023-03-13T08:22:42.304Z,12.43
2023-03-13T08:23:32.284Z,12.41
2023-03-13T08:24:22.321Z,12.41
2023-03-13T08:25:12.290Z,12.43
2023-03-13T08:26:02.289Z,12.44
2023-03-13T08:26:52.261Z,12.44
2023-03-13T08:27:42.261Z,12.46
2023-03-13T08:28:32.241Z,12.48
2023-03-13T08:29:22.236Z,12.49
2023-03-13T08:30:12.240Z,12.49
2023-03-13T08:31:02.265Z,12.51
2023-03-13T08:31:52.257Z,12.55
2023-03-13T08:32:42.238Z,12.59
2023-03-13T08:33:32.194Z,12.62
2023-03-13T08:34:22.186Z,12.67
2023-03-13T08:35:12.170Z,12.69
2023-03-13T08:36:02.219Z,12.70
2023-03-13T08:36:52.161Z,12.73
2023-03-13T08:37:42.151Z,12.71
2023-03-13T08:38:32.121Z,12.74
2023-03-13T08:39:22.122Z,12.76
2023-03-13T08:40:12.124Z,12.76
2023-03-13T08:41:02.119Z,12.74
2023-03-13T08:41:52.096Z,12.77
2023-03-13T08:42:42.081Z,12.76
2023-03-13T08:43:32.073Z,12.74
2023-03-13T08:44:22.061Z,12.76
2023-03-13T08:45:12.057Z,12.77
2023-03-13T08:46:02.092Z,12.77
2023-03-13T08:46:52.052Z,12.79
2023-03-13T08:47:42.027Z,12.80
2023-03-13T08:48:32.024Z,12.84
2023-03-13T08:49:22.012Z,12.85
2023-03-13T08:50:12.030Z,12.84
2023-03-13T08:51:02.006Z,12.85
2023-03-13T08:51:51.980Z,12.88
2023-03-13T08:52:41.976Z,12.88
2023-03-13T08:53:31.960Z,12.92
2023-03-13T08:54:21.960Z,12.91
2023-03-13T08:55:11.959Z,12.94
2023-03-13T08:56:01.959Z,12.94
2023-03-13T08:56:51.926Z,12.96
2023-03-13T08:57:41.915Z,12.96
2023-03-13T08:58:31.908Z,12.99
2023-03-13T08:59:21.935Z,13.03
2023-03-13T09:00:11.882Z,13.07
2023-03-13T09:01:01.877Z,13.10
2023-03-13T09:01:51.856Z,13.12
2023-03-13T09:02:41.936Z,13.14
2023-03-13T09:03:31.916Z,13.16
2023-03-13T09:04:21.850Z,13.19
2023-03-13T09:05:11.835Z,13.21
2023-03-13T09:06:01.835Z,13.24
2023-03-13T09:06:51.805Z,13.27
2023-03-13T09:07:41.815Z,13.28
2023-03-13T09:08:31.868Z,13.31
2023-03-13T09:09:23.293Z,13.31
2023-03-13T09:10:11.783Z,13.35
2023-03-13T09:11:01.799Z,13.32
2023-03-13T09:11:51.762Z,13.31
2023-03-13T09:12:41.779Z,13.35
2023-03-13T09:13:31.739Z,13.36
2023-03-13T09:14:21.734Z,13.38
2023-03-13T09:15:11.730Z,13.41
2023-03-13T09:16:01.808Z,13.39
2023-03-13T09:16:51.733Z,13.43
2023-03-13T09:17:41.691Z,13.44
2023-03-13T09:18:31.731Z,13.48
2023-03-13T09:19:21.688Z,13.51
2023-03-13T09:20:11.674Z,13.53
2023-03-13T09:21:01.686Z,13.51
2023-03-13T09:21:51.634Z,13.51
2023-03-13T09:22:41.649Z,13.55
2023-03-13T09:23:31.664Z,13.59
2023-03-13T09:24:21.635Z,13.61
2023-03-13T09:25:11.594Z,13.63
2023-03-13T09:26:01.605Z,13.66
2023-03-13T09:27:00.592Z,13.68
2023-03-13T09:27:42.593Z,13.71
2023-03-13T09:28:31.562Z,13.75
2023-03-13T09:29:21.572Z,13.79
2023-03-13T09:30:11.581Z,13.83
2023-03-13T09:31:01.573Z,13.84
2023-03-13T09:31:51.535Z,13.87
2023-03-13T09:32:41.530Z,13.90
2023-03-13T09:33:31.511Z,13.93
2023-03-13T09:34:21.522Z,13.94
2023-03-13T09:35:11.492Z,13.96
2023-03-13T09:36:01.546Z,13.99
2023-03-13T09:36:51.467Z,13.99
2023-03-13T09:37:41.461Z,14.04
2023-03-13T09:38:31.478Z,14.05
2023-03-13T09:39:21.497Z,14.12
2023-03-13T09:40:11.440Z,14.13
2023-03-13T09:41:06.260Z,14.19
2023-03-13T09:41:52.422Z,14.21
2023-03-13T09:42:41.433Z,14.27
2023-03-13T09:43:31.407Z,14.30
2023-03-13T09:44:21.385Z,14.34
2023-03-13T09:45:11.410Z,14.39
2023-03-13T09:46:01.411Z,14.38
2023-03-13T09:46:51.423Z,14.36
2023-03-13T09:47:41.348Z,14.41
2023-03-13T09:48:31.338Z,14.46
2023-03-13T09:49:21.372Z,14.49
2023-03-13T09:50:11.317Z,14.54
2023-03-13T09:51:01.346Z,14.60
2023-03-13T09:51:51.304Z,14.60
2023-03-13T09:52:41.306Z,14.63
2023-03-13T09:53:31.290Z,14.66
2023-03-13T09:54:21.307Z,14.66
2023-03-13T09:55:11.298Z,14.67
2023-03-13T09:56:01.262Z,14.74
2023-03-13T09:56:51.256Z,14.79
2023-03-13T09:57:41.250Z,14.82
2023-03-13T09:58:31.250Z,14.83
2023-03-13T09:59:21.210Z,14.90
2023-03-13T10:00:11.240Z,14.94
2023-03-13T10:01:01.215Z,14.98
2023-03-13T10:01:51.213Z,15.05
2023-03-13T10:02:41.177Z,15.13
2023-03-13T10:03:31.195Z,15.18
2023-03-13T10:04:21.261Z,15.23
2023-03-13T10:05:11.166Z,15.27
2023-03-13T10:06:01.146Z,15.33
2023-03-13T10:06:51.139Z,15.40
2023-03-13T10:07:41.127Z,15.44
2023-03-13T10:08:31.122Z,15.49
2023-03-13T10:09:21.130Z,15.49
2023-03-13T10:10:11.109Z,15.51
2023-03-13T10:11:01.076Z,15.52
2023-03-13T10:11:51.086Z,15.53
2023-03-13T10:12:41.076Z,15.55
2023-03-13T10:13:31.066Z,15.58
2023-03-13T10:14:21.087Z,15.62
2023-03-13T10:15:11.059Z,15.68
2023-03-13T10:16:01.111Z,15.73
2023-03-13T10:16:51.060Z,15.76
2023-03-13T10:17:41.014Z,15.78
2023-03-13T10:18:31.029Z,15.80
2023-03-13T10:19:21.005Z,15.80
2023-03-13T10:20:10.995Z,15.84
2023-03-13T10:21:00.994Z,15.86
2023-03-13T10:21:50.990Z,15.85
2023-03-13T10:22:40.955Z,15.91
2023-03-13T10:23:30.965Z,15.93
2023-03-13T10:24:20.948Z,15.98
2023-03-13T10:25:10.963Z,16.04
2023-03-13T10:26:00.918Z,16.08
2023-03-13T10:26:50.911Z,16.14
2023-03-13T10:27:40.894Z,16.10
2023-03-13T10:28:30.905Z,16.06
2023-03-13T10:29:20.878Z,16.01
2023-03-13T10:30:10.864Z,16.03
2023-03-13T10:31:00.880Z,16.03
2023-03-13T10:31:50.858Z,16.04
2023-03-13T10:32:40.925Z,16.06
2023-03-13T10:33:30.851Z,16.08
2023-03-13T10:34:20.839Z,16.14
2023-03-13T10:35:10.814Z,16.14
2023-03-13T10:36:00.863Z,16.17
2023-03-13T10:36:50.841Z,16.23
2023-03-13T10:37:40.808Z,16.27
2023-03-13T10:38:30.778Z,16.36
2023-03-13T10:39:20.778Z,16.41
2023-03-13T10:40:10.766Z,16.41
2023-03-13T10:41:00.744Z,16.44
2023-03-13T10:41:50.755Z,16.51
2023-03-13T10:42:40.750Z,16.59
2023-03-13T10:43:30.753Z,16.63
2023-03-13T10:44:20.717Z,16.66
2023-03-13T10:45:10.722Z,16.67
2023-03-13T10:46:00.696Z,16.65
2023-03-13T10:46:50.737Z,16.65
2023-03-13T10:47:40.685Z,16.69
2023-03-13T10:48:30.703Z,16.67
2023-03-13T10:49:20.653Z,16.63
2023-03-13T10:50:10.665Z,16.66